createdAt,value
2018-01-13T00:02:07.974Z,103.93
2018-01-13T00:04:35.493Z,108.43
2018-01-13T00:07:03.016Z,94.37
2018-01-13T00:09:30.490Z,100.57
2018-01-13T00:11:58.731Z,100.73
2018-01-13T00:14:26.227Z,99.60
2018-01-13T00:16:53.715Z,105.37
2018-01-13T00:19:21.198Z,104.87
2018-01-13T00:21:49.778Z,102.40
2018-01-13T00:24:17.348Z,97.80
2018-01-13T00:26:44.823Z,95.27
2018-01-13T00:29:12.395Z,102.80
2018-01-13T00:31:39.870Z,95.87
2018-01-13T00:34:08.152Z,97.27
2018-01-13T00:36:35.653Z,100.53
2018-01-13T00:39:03.130Z,102.30
2018-01-13T00:41:30.615Z,94.40
2018-01-13T00:43:58.126Z,86.30
2018-01-13T00:46:25.632Z,91.47
2018-01-13T00:48:53.103Z,87.57
2018-01-13T00:51:20.951Z,87.93
2018-01-13T00:53:48.451Z,95.27
2018-01-13T00:56:16.709Z,91.00
2018-01-13T00:58:44.284Z,88.37
2018-01-13T01:01:12.541Z,89.67
2018-01-13T01:03:40.014Z,95.30
2018-01-13T01:06:07.615Z,86.90
2018-01-13T01:08:35.095Z,91.63
2018-01-13T01:11:03.337Z,86.80
2018-01-13T01:13:30.834Z,91.50
2018-01-13T01:15:58.410Z,100.67
2018-01-13T01:18:25.887Z,89.87
2018-01-13T01:20:53.394Z,95.23
2018-01-13T01:23:20.875Z,92.17
2018-01-13T01:25:48.351Z,89.47
2018-01-13T01:28:15.863Z,89.70
2018-01-13T01:30:43.340Z,87.73
2018-01-13T01:33:10.820Z,95.63
2018-01-13T01:35:39.079Z,98.73
2018-01-13T01:38:06.566Z,88.50
2018-01-13T01:40:34.043Z,86.57
2018-01-13T01:43:02.304Z,91.27
2018-01-13T01:45:29.786Z,89.27
2018-01-13T01:47:57.362Z,85.27
2018-01-13T01:50:24.968Z,92.23
2018-01-13T01:52:52.539Z,83.13
2018-01-13T01:55:20.014Z,92.53
2018-01-13T01:57:47.583Z,90.33
2018-01-13T02:00:15.060Z,83.23
2018-01-13T02:02:42.534Z,86.67
2018-01-13T02:05:10.030Z,78.10
2018-01-13T02:07:37.531Z,85.93
2018-01-13T02:10:05.007Z,75.90
2018-01-13T02:12:32.510Z,86.43
2018-01-13T02:15:00.079Z,77.97
2018-01-13T02:17:27.551Z,76.80
2018-01-13T02:19:55.083Z,79.23
2018-01-13T02:22:22.654Z,77.40
2018-01-13T02:24:50.127Z,79.37
2018-01-13T02:27:17.714Z,82.00
2018-01-13T02:29:45.997Z,76.80
2018-01-13T02:32:13.471Z,72.40
2018-01-13T02:34:41.735Z,75.83
2018-01-13T02:37:09.251Z,70.90
2018-01-13T02:39:36.731Z,69.50
2018-01-13T02:42:04.293Z,76.07
2018-01-13T02:44:31.869Z,76.77
2018-01-13T02:46:59.386Z,71.80
2018-01-13T02:49:26.891Z,72.40
2018-01-13T02:51:55.135Z,66.20
2018-01-13T02:54:22.649Z,71.70
2018-01-13T02:56:50.887Z,69.73
2018-01-13T02:59:18.366Z,64.97
2018-01-13T03:01:45.854Z,68.83
2018-01-13T03:04:13.338Z,66.57
2018-01-13T03:06:40.832Z,70.33
2018-01-13T03:09:08.370Z,68.20
2018-01-13T03:11:35.850Z,70.40
2018-01-13T03:14:03.414Z,60.20
2018-01-13T03:16:30.887Z,62.97
2018-01-13T03:18:58.391Z,62.10
2018-01-13T03:21:25.867Z,57.00
2018-01-13T03:23:53.342Z,64.37
2018-01-13T03:26:20.835Z,59.13
2018-01-13T03:28:48.779Z,61.20
2018-01-13T03:31:16.271Z,60.00
2018-01-13T03:33:43.750Z,62.80
2018-01-13T03:36:11.259Z,57.73
2018-01-13T03:38:38.863Z,52.83
2018-01-13T03:41:06.342Z,51.90
2018-01-13T03:43:33.848Z,51.23
2018-01-13T03:46:01.327Z,49.60
2018-01-13T03:48:28.815Z,50.00
2018-01-13T03:50:56.314Z,49.77
2018-01-13T03:53:23.791Z,47.80
2018-01-13T03:55:51.322Z,49.57
2018-01-13T03:58:18.900Z,47.03
2018-01-13T04:00:47.139Z,47.60
2018-01-13T04:03:14.654Z,46.50
2018-01-13T04:05:42.978Z,43.53
2018-01-13T04:08:10.471Z,43.83
2018-01-13T04:10:37.947Z,42.33
2018-01-13T04:13:05.490Z,46.10
2018-01-13T04:15:33.061Z,37.67
2018-01-13T04:18:00.551Z,36.47
2018-01-13T04:20:28.075Z,39.00
2018-01-13T04:22:55.642Z,38.23
2018-01-13T04:25:23.219Z,40.70
2018-01-13T04:27:50.755Z,41.90
2018-01-13T04:30:18.235Z,38.50
2018-01-13T04:32:45.730Z,37.00
2018-01-13T04:35:13.206Z,36.63
2018-01-13T04:37:41.482Z,35.37
2018-01-13T04:40:08.975Z,35.17
2018-01-13T04:42:37.210Z,35.13
2018-01-13T04:45:04.720Z,33.10
2018-01-13T04:47:32.194Z,34.27
2018-01-13T04:50:00.434Z,38.13
2018-01-13T04:52:27.921Z,32.47
2018-01-13T04:54:55.398Z,32.37
2018-01-13T04:57:23.290Z,35.03
2018-01-13T04:59:50.865Z,35.23
2018-01-13T05:02:18.355Z,31.00
2018-01-13T05:04:46.607Z,32.03
2018-01-13T05:07:14.095Z,27.57
2018-01-13T05:09:41.587Z,28.93
2018-01-13T05:12:09.831Z,25.70
2018-01-13T05:14:37.307Z,31.00
2018-01-13T05:17:04.794Z,31.30
2018-01-13T05:19:32.274Z,29.40
2018-01-13T05:22:00.548Z,27.60
2018-01-13T05:24:28.118Z,29.73
2018-01-13T05:26:55.607Z,28.03
2018-01-13T05:29:23.886Z,29.67
2018-01-13T05:31:51.362Z,26.73
2018-01-13T05:34:19.639Z,25.50
2018-01-13T05:36:47.211Z,25.07
2018-01-13T05:39:14.691Z,25.97
2018-01-13T05:41:42.251Z,29.57
2018-01-13T05:44:09.756Z,25.53
2018-01-13T05:46:37.606Z,26.60
2018-01-13T05:49:05.594Z,26.93
2018-01-13T05:51:33.071Z,25.07
2018-01-13T05:54:00.631Z,31.77
2018-01-13T05:56:28.107Z,22.83
2018-01-13T05:58:56.370Z,27.87
2018-01-13T06:01:23.843Z,23.63
2018-01-13T06:03:51.319Z,23.50
2018-01-13T06:06:20.314Z,24.43
2018-01-13T06:08:47.787Z,28.40
2018-01-13T06:11:15.279Z,25.33
2018-01-13T06:13:42.755Z,23.57
2018-01-13T06:16:11.034Z,21.90
2018-01-13T06:18:38.534Z,23.73
2018-01-13T06:21:06.106Z,23.23
2018-01-13T06:23:33.603Z,22.87
2018-01-13T06:26:01.083Z,22.20
2018-01-13T06:28:28.586Z,22.00
2018-01-13T06:30:56.086Z,23.40
2018-01-13T06:33:23.658Z,21.63
2018-01-13T06:35:51.146Z,22.43
2018-01-13T06:38:18.666Z,25.63
2018-01-13T06:40:46.147Z,22.43
2018-01-13T06:43:14.407Z,22.50
2018-01-13T06:45:41.891Z,26.27
2018-01-13T06:48:09.466Z,22.47
2018-01-13T06:50:36.943Z,23.53
2018-01-13T06:53:04.519Z,28.50
2018-01-13T06:55:32.778Z,28.47
2018-01-13T06:58:00.275Z,26.67
2018-01-13T07:00:27.874Z,24.40
2018-01-13T07:02:55.446Z,25.07
2018-01-13T07:05:22.923Z,28.80
2018-01-13T07:07:50.415Z,27.43
2018-01-13T07:10:17.890Z,27.53
2018-01-13T07:12:45.399Z,26.43
2018-01-13T07:15:12.871Z,25.43
2018-01-13T07:17:40.443Z,22.20
2018-01-13T07:20:08.015Z,22.07
2018-01-13T07:22:35.503Z,24.10
2018-01-13T07:25:03.763Z,30.23
2018-01-13T07:27:31.346Z,27.07
2018-01-13T07:29:58.830Z,22.97
2018-01-13T07:32:27.131Z,44.70
2018-01-13T07:34:55.398Z,22.07
2018-01-13T07:37:22.899Z,21.33
2018-01-13T07:39:50.383Z,21.97
2018-01-13T07:42:17.875Z,21.73
2018-01-13T07:44:45.364Z,23.40
2018-01-13T07:47:12.838Z,22.83
2018-01-13T07:49:40.326Z,22.00
2018-01-13T07:52:08.633Z,23.43
2018-01-13T07:54:36.174Z,24.80
2018-01-13T07:57:03.654Z,25.43
2018-01-13T07:59:31.906Z,24.07
2018-01-13T08:01:59.389Z,22.63
2018-01-13T08:04:27.005Z,21.40
2018-01-13T08:06:54.578Z,24.43
2018-01-13T08:09:22.055Z,21.03
2018-01-13T08:11:49.546Z,22.60
2018-01-13T08:14:17.027Z,23.10
2018-01-13T08:16:44.527Z,26.80
2018-01-13T08:19:12.091Z,29.20
2018-01-13T08:21:39.602Z,27.33
2018-01-13T08:24:07.854Z,23.33
2018-01-13T08:26:35.332Z,20.47
2018-01-13T08:29:02.996Z,22.20
2018-01-13T08:31:30.511Z,21.17
2018-01-13T08:33:58.010Z,20.50
2018-01-13T08:36:25.506Z,19.70
2018-01-13T08:38:53.963Z,21.33
2018-01-13T08:41:21.458Z,19.53
2018-01-13T08:43:48.981Z,22.53
2018-01-13T08:46:17.214Z,24.27
2018-01-13T08:48:44.713Z,22.47
2018-01-13T08:51:12.191Z,26.67
2018-01-13T08:53:39.701Z,21.03
2018-01-13T08:56:07.942Z,25.57
2018-01-13T08:58:35.414Z,24.70
2018-01-13T09:01:02.915Z,22.10
2018-01-13T09:03:30.381Z,20.73
2018-01-13T09:05:58.230Z,25.43
2018-01-13T09:08:25.738Z,23.70
2018-01-13T09:10:53.210Z,21.63
2018-01-13T09:13:20.777Z,19.53
2018-01-13T09:15:48.350Z,21.53
2018-01-13T09:18:15.923Z,18.33
2018-01-13T09:20:43.522Z,15.30
2018-01-13T09:23:11.003Z,16.80
2018-01-13T09:25:38.486Z,15.60
2018-01-13T09:28:05.969Z,14.47
2018-01-13T09:30:33.462Z,18.73
2018-01-13T09:33:01.703Z,17.30
2018-01-13T09:35:29.182Z,24.20
2018-01-13T09:37:56.678Z,17.97
2018-01-13T09:40:24.245Z,17.13
2018-01-13T09:42:51.819Z,15.60
2018-01-13T09:45:19.457Z,16.40
2018-01-13T09:47:46.963Z,25.10
2018-01-13T09:50:14.442Z,16.53
2018-01-13T09:52:42.758Z,15.50
2018-01-13T09:55:10.246Z,14.33
2018-01-13T09:57:37.722Z,13.13
2018-01-13T10:00:05.234Z,13.80
2018-01-13T10:02:32.808Z,17.43
2018-01-13T10:05:00.282Z,15.80
2018-01-13T10:07:28.876Z,14.50
2018-01-13T10:09:57.193Z,14.53
2018-01-13T10:12:25.684Z,15.27
2018-01-13T10:16:42.294Z,27.97
2018-01-13T10:19:10.819Z,31.97
2018-01-13T10:21:38.515Z,14.50
2018-01-13T10:24:06.061Z,15.47
2018-01-13T10:26:34.431Z,11.90
2018-01-13T10:29:02.718Z,13.50
2018-01-13T10:31:30.210Z,35.73
2018-01-13T10:33:58.475Z,19.63
2018-01-13T10:36:26.058Z,18.97
2018-01-13T10:38:54.306Z,13.27
2018-01-13T10:41:21.783Z,20.93
2018-01-13T10:43:49.268Z,12.80
2018-01-13T10:46:16.842Z,14.73
2018-01-13T10:48:44.321Z,12.90
2018-01-13T10:51:11.814Z,12.50
2018-01-13T10:53:40.074Z,18.80
2018-01-13T10:56:07.682Z,11.87
2018-01-13T10:58:35.942Z,12.77
2018-01-13T11:01:03.814Z,20.30
2018-01-13T11:03:31.424Z,11.23
2018-01-13T11:05:58.906Z,10.27
2018-01-13T11:08:26.567Z,9.80
2018-01-13T11:10:54.103Z,8.90
2018-01-13T11:13:21.590Z,10.00
2018-01-13T11:15:49.838Z,9.67
2018-01-13T11:18:17.320Z,8.60
2018-01-13T11:20:44.918Z,9.13
2018-01-13T11:23:12.484Z,11.07
2018-01-13T11:25:40.054Z,11.00
2018-01-13T11:28:07.639Z,9.20
2018-01-13T11:30:35.191Z,5.83
2018-01-13T11:33:02.682Z,98.10
2018-01-13T11:35:30.930Z,9.20
2018-01-13T11:37:58.643Z,9.33
2018-01-13T11:40:27.104Z,8.70
2018-01-13T11:42:54.567Z,9.40
2018-01-13T11:45:22.710Z,10.50
2018-01-13T11:47:50.249Z,8.83
2018-01-13T11:50:17.981Z,9.50
2018-01-13T11:52:45.613Z,10.43
2018-01-13T11:55:13.922Z,9.73
2018-01-13T11:57:41.405Z,9.53
2018-01-13T12:00:08.874Z,10.17
2018-01-13T12:02:36.350Z,10.87
2018-01-13T12:05:03.831Z,13.43
2018-01-13T12:07:31.297Z,11.40
2018-01-13T12:09:58.806Z,7.80
2018-01-13T12:12:26.278Z,8.67
2018-01-13T12:14:53.850Z,10.23
2018-01-13T12:17:21.326Z,9.77
2018-01-13T12:19:48.927Z,9.70
2018-01-13T12:22:16.766Z,8.90
2018-01-13T12:24:44.351Z,12.03
2018-01-13T12:27:11.911Z,9.00
2018-01-13T12:29:39.390Z,8.73
2018-01-13T12:32:06.858Z,9.93
2018-01-13T12:34:34.630Z,22.20
2018-01-13T12:37:02.206Z,7.27
2018-01-13T12:39:29.682Z,7.80
2018-01-13T12:41:57.242Z,8.57
2018-01-13T12:44:24.713Z,7.60
2018-01-13T12:46:52.498Z,6.67
2018-01-13T12:49:19.970Z,10.37
2018-01-13T12:51:48.207Z,11.63
2018-01-13T12:54:15.721Z,7.00
2018-01-13T12:56:43.954Z,5.67
2018-01-13T12:59:11.439Z,6.63
2018-01-13T13:01:38.910Z,9.27
2018-01-13T13:04:06.375Z,8.33
2018-01-13T13:06:33.854Z,5.37
2018-01-13T13:09:01.604Z,8.53
2018-01-13T13:11:29.093Z,10.73
2018-01-13T13:13:56.604Z,8.60
2018-01-13T13:16:24.069Z,7.63
2018-01-13T13:18:51.546Z,6.60
2018-01-13T13:21:19.118Z,7.27
2018-01-13T13:23:46.598Z,6.77
2018-01-13T13:26:14.066Z,7.30
2018-01-13T13:28:41.530Z,6.87
2018-01-13T13:31:09.010Z,8.80
2018-01-13T13:33:37.323Z,8.70
2018-01-13T13:36:04.896Z,8.37
2018-01-13T13:38:32.374Z,8.67
2018-01-13T13:40:59.938Z,8.80
2018-01-13T13:43:27.423Z,8.23
2018-01-13T13:45:54.910Z,10.47
2018-01-13T13:48:22.402Z,7.90
2018-01-13T13:50:51.378Z,8.70
2018-01-13T13:53:18.846Z,10.27
2018-01-13T13:55:46.334Z,10.53
2018-01-13T13:58:13.798Z,9.00
2018-01-13T14:00:41.394Z,9.53
2018-01-13T14:03:08.862Z,10.20
2018-01-13T14:05:36.330Z,8.13
2018-01-13T14:08:03.810Z,8.53
2018-01-13T14:10:33.944Z,8.20
2018-01-13T14:13:01.594Z,7.63
2018-01-13T14:15:29.072Z,9.43
2018-01-13T14:17:56.553Z,9.37
2018-01-13T14:20:24.030Z,8.87
2018-01-13T14:22:51.597Z,8.50
2018-01-13T14:25:19.063Z,9.03
2018-01-13T14:27:47.314Z,8.60
2018-01-13T14:30:14.781Z,8.30
2018-01-13T14:32:42.302Z,8.93
2018-01-13T14:35:09.766Z,7.30
2018-01-13T14:37:38.000Z,8.03
2018-01-13T14:40:05.530Z,6.93
2018-01-13T14:42:33.406Z,7.53
2018-01-13T14:45:00.986Z,9.67
2018-01-13T14:47:28.558Z,11.33
2018-01-13T14:49:56.164Z,8.17
2018-01-13T14:52:23.674Z,8.67
2018-01-13T14:54:51.205Z,8.80
2018-01-13T14:57:18.776Z,9.97
2018-01-13T14:59:46.317Z,8.93
2018-01-13T15:02:13.785Z,11.03
2018-01-13T15:04:41.355Z,10.07
2018-01-13T15:07:08.821Z,11.63
2018-01-13T15:09:36.698Z,11.80
2018-01-13T15:12:04.174Z,14.53
2018-01-13T15:14:31.687Z,11.47
2018-01-13T15:16:59.948Z,11.27
2018-01-13T15:19:28.259Z,11.37
2018-01-13T15:21:55.752Z,14.17
2018-01-13T15:24:23.230Z,14.77
2018-01-13T15:26:50.769Z,24.63
2018-01-13T15:29:18.341Z,21.20
2018-01-13T15:31:46.593Z,12.90
2018-01-13T15:34:14.090Z,13.70
2018-01-13T15:36:42.355Z,15.93
2018-01-13T15:39:09.826Z,10.87
2018-01-13T15:41:37.325Z,12.30
2018-01-13T15:44:05.563Z,14.13
2018-01-13T15:46:33.062Z,12.97
2018-01-13T15:49:01.353Z,12.83
2018-01-13T15:51:29.595Z,12.37
2018-01-13T15:53:57.342Z,11.57
2018-01-13T15:56:24.846Z,12.70
2018-01-13T15:58:52.391Z,54.53
2018-01-13T16:01:19.918Z,31.60
2018-01-13T16:03:47.413Z,17.73
2018-01-13T16:06:15.691Z,15.83
2018-01-13T16:08:43.172Z,13.27
2018-01-13T16:11:11.433Z,15.27
2018-01-13T16:13:38.952Z,13.30
2018-01-13T16:16:06.795Z,12.53
2018-01-13T16:18:34.270Z,18.40
2018-01-13T16:21:01.746Z,12.23
2018-01-13T16:23:30.172Z,25.83
2018-01-13T16:25:58.485Z,15.30
2018-01-13T16:28:25.962Z,13.03
2018-01-13T16:30:53.434Z,13.53
2018-01-13T16:33:21.265Z,14.80
2018-01-13T16:35:48.839Z,14.07
2018-01-13T16:38:16.411Z,16.83
2018-01-13T16:40:43.898Z,12.60
2018-01-13T16:43:11.413Z,15.87
2018-01-13T16:45:38.990Z,13.37
2018-01-13T16:48:06.565Z,13.80
2018-01-13T16:50:34.058Z,16.00
2018-01-13T16:53:02.302Z,13.73
2018-01-13T16:55:29.783Z,13.23
2018-01-13T16:57:57.362Z,11.90
2018-01-13T17:00:24.835Z,13.87
2018-01-13T17:02:52.314Z,13.43
2018-01-13T17:05:20.589Z,14.10
2018-01-13T17:07:48.854Z,11.97
2018-01-13T17:10:16.327Z,15.77
2018-01-13T17:12:43.803Z,14.43
2018-01-13T17:15:11.282Z,14.20
2018-01-13T17:17:38.862Z,14.47
2018-01-13T17:20:06.349Z,13.27
2018-01-13T17:22:33.856Z,14.67
2018-01-13T17:25:01.346Z,17.43
2018-01-13T17:27:28.817Z,15.20
2018-01-13T17:29:56.310Z,14.50
2018-01-13T17:32:23.815Z,19.57
2018-01-13T17:34:51.290Z,13.70
2018-01-13T17:37:18.834Z,14.20
2018-01-13T17:39:46.315Z,19.53
2018-01-13T17:42:14.579Z,19.20
2018-01-13T17:44:42.162Z,15.43
2018-01-13T17:47:09.630Z,13.03
2018-01-13T17:49:37.114Z,13.77
2018-01-13T17:52:05.350Z,11.83
2018-01-13T17:54:32.833Z,17.07
2018-01-13T17:57:00.363Z,15.10
2018-01-13T17:59:27.863Z,17.10
2018-01-13T18:01:55.702Z,26.03
2018-01-13T18:04:23.246Z,15.00
2018-01-13T18:06:50.740Z,15.30
2018-01-13T18:09:18.995Z,14.20
2018-01-13T18:11:46.479Z,15.30
2018-01-13T18:14:13.956Z,14.63
2018-01-13T18:16:41.442Z,12.93
2018-01-13T18:19:09.702Z,77.40
2018-01-13T18:21:37.288Z,59.43
2018-01-13T18:24:04.781Z,13.23
2018-01-13T18:26:32.354Z,14.10
2018-01-13T18:28:59.854Z,15.43
2018-01-13T18:31:27.395Z,15.63
2018-01-13T18:33:54.899Z,13.57
2018-01-13T18:36:22.381Z,16.33
2018-01-13T18:38:49.854Z,14.87
2018-01-13T18:41:17.354Z,16.90
2018-01-13T18:43:44.846Z,19.83
2018-01-13T18:46:12.334Z,13.40
2018-01-13T18:48:39.810Z,14.33
2018-01-13T18:51:07.290Z,14.20
2018-01-13T18:53:34.832Z,14.30
2018-01-13T18:56:02.402Z,12.93
2018-01-13T18:58:30.242Z,13.63
2018-01-13T19:00:57.718Z,14.07
2018-01-13T19:03:25.196Z,14.93
2018-01-13T19:05:52.750Z,15.60
2018-01-13T19:08:20.334Z,16.70
2018-01-13T19:10:47.822Z,16.20
2018-01-13T19:13:16.062Z,13.70
2018-01-13T19:15:43.551Z,18.97
2018-01-13T19:18:11.022Z,20.60
2018-01-13T19:20:38.490Z,12.97
2018-01-13T19:23:05.974Z,16.03
2018-01-13T19:25:33.454Z,15.10
2018-01-13T19:28:00.951Z,13.73
2018-01-13T19:30:28.497Z,13.37
2018-01-13T19:32:56.754Z,14.07
2018-01-13T19:35:24.226Z,13.93
2018-01-13T19:37:51.705Z,13.00
2018-01-13T19:40:19.211Z,12.57
2018-01-13T19:42:46.753Z,14.53
2018-01-13T19:45:14.242Z,13.20
2018-01-13T19:47:42.482Z,32.87
2018-01-13T19:50:09.954Z,95.07
2018-01-13T19:52:37.446Z,13.50
2018-01-13T19:55:05.024Z,13.30
2018-01-13T19:57:32.567Z,14.13
2018-01-13T20:00:00.041Z,13.17
2018-01-13T20:02:27.563Z,12.43
2018-01-13T20:04:55.814Z,15.70
2018-01-13T20:07:23.411Z,12.43
2018-01-13T20:09:51.666Z,14.60
2018-01-13T20:12:19.262Z,14.40
2018-01-13T20:14:46.746Z,13.03
2018-01-13T20:17:15.022Z,13.70
2018-01-13T20:19:42.515Z,15.57
2018-01-13T20:22:10.760Z,13.90
2018-01-13T20:24:38.247Z,13.50
2018-01-13T20:27:05.734Z,14.63
2018-01-13T20:29:33.970Z,14.30
2018-01-13T20:32:01.517Z,15.27
2018-01-13T20:34:28.994Z,15.87
2018-01-13T20:36:56.514Z,18.70
2018-01-13T20:39:24.018Z,25.70
2018-01-13T20:41:51.558Z,15.83
2018-01-13T20:44:19.126Z,15.83
2018-01-13T20:46:46.611Z,15.00
2018-01-13T20:49:14.176Z,15.27
2018-01-13T20:51:41.651Z,13.80
2018-01-13T20:54:09.222Z,15.47
2018-01-13T20:56:36.726Z,16.57
2018-01-13T20:59:04.206Z,14.73
2018-01-13T21:01:31.734Z,14.53
2018-01-13T21:04:00.050Z,14.23
2018-01-13T21:06:27.620Z,15.10
2018-01-13T21:08:55.194Z,15.17
2018-01-13T21:11:22.765Z,14.27
2018-01-13T21:13:51.020Z,30.33
2018-01-13T21:16:18.606Z,55.07
2018-01-13T21:18:46.883Z,16.80
2018-01-13T21:21:14.397Z,17.37
2018-01-13T21:23:41.971Z,18.27
2018-01-13T21:26:09.454Z,20.07
2018-01-13T21:28:37.010Z,18.50
2018-01-13T21:31:04.503Z,15.53
2018-01-13T21:33:31.979Z,16.23
2018-01-13T21:35:59.462Z,22.30
2018-01-13T21:38:26.938Z,16.07
2018-01-13T21:40:54.528Z,16.43
2018-01-13T21:43:22.009Z,18.50
2018-01-13T21:45:50.286Z,14.70
2018-01-13T21:48:17.774Z,14.53
2018-01-13T21:50:45.246Z,16.40
2018-01-13T21:53:13.506Z,15.50
2018-01-13T21:55:40.977Z,14.77
2018-01-13T21:58:08.554Z,15.77
2018-01-13T22:00:36.035Z,13.40
2018-01-13T22:03:03.531Z,13.13
2018-01-13T22:05:31.078Z,14.37
2018-01-13T22:07:58.779Z,12.87
2018-01-13T22:10:26.270Z,17.23
2018-01-13T22:12:53.826Z,15.60
2018-01-13T22:15:21.318Z,16.63
2018-01-13T22:17:48.839Z,13.50
2018-01-13T22:20:17.079Z,16.10
2018-01-13T22:22:44.590Z,15.03
2018-01-13T22:25:12.062Z,18.63
2018-01-13T22:27:39.563Z,16.50
2018-01-13T22:30:07.034Z,17.23
2018-01-13T22:32:34.506Z,17.43
2018-01-13T22:35:02.002Z,15.43
2018-01-13T22:37:29.485Z,14.67
2018-01-13T22:39:57.287Z,14.03
2018-01-13T22:42:24.782Z,14.30
2018-01-13T22:44:53.017Z,13.80
2018-01-13T22:47:20.502Z,16.10
2018-01-13T22:49:48.091Z,14.90
2018-01-13T22:52:15.658Z,16.20
2018-01-13T22:54:43.130Z,15.47
2018-01-13T22:57:10.915Z,13.50
2018-01-13T22:59:38.387Z,15.07
2018-01-13T23:02:06.630Z,16.20
2018-01-13T23:04:34.109Z,16.57
2018-01-13T23:07:01.591Z,15.23
2018-01-13T23:09:29.074Z,16.83
2018-01-13T23:11:56.546Z,17.30
2018-01-13T23:14:24.810Z,14.77
2018-01-13T23:16:52.290Z,15.57
2018-01-13T23:19:19.763Z,17.70
2018-01-13T23:21:47.342Z,13.67
2018-01-13T23:24:14.820Z,14.83
2018-01-13T23:26:42.387Z,15.30
2018-01-13T23:29:09.858Z,14.43
2018-01-13T23:31:37.351Z,15.67
2018-01-13T23:34:05.588Z,13.53
2018-01-13T23:36:33.081Z,15.70
2018-01-13T23:39:00.695Z,15.73
2018-01-13T23:41:28.170Z,15.40
2018-01-13T23:43:55.654Z,16.00
2018-01-13T23:46:23.130Z,13.93
2018-01-13T23:48:50.674Z,14.07
2018-01-13T23:51:18.150Z,15.97
2018-01-13T23:53:45.681Z,14.97
2018-01-13T23:56:13.170Z,15.33
2018-01-13T23:58:41.442Z,15.60
